Time;durP1;ratioP1;P1;durP2;ratioP2;P2;SDS_P1;SDS_P2;PMS_P1;PMS_P2;Temp;Humidity;BMP_temperature;BMP_pressure;BME280_temperature;BME280_humidity;BME280_pressure;Samples;Min_cycle;Max_cycle;Signal;HPM_P1;HPM_P2
2021/06/23 00:00:27;;;;;;;37.53;14.38;;;27.20;99.90;;;;;;5093729;28;20031;-77
2021/06/23 00:02:54;;;;;;;41.55;15.07;;;27.30;99.90;;;;;;5100748;28;20478;-71
2021/06/23 00:05:20;;;;;;;33.33;13.68;;;27.10;99.90;;;;;;5096771;28;20070;-72
2021/06/23 00:07:46;;;;;;;38.05;13.43;;;27.10;99.90;;;;;;5099083;28;20948;-75
2021/06/23 00:10:14;;;;;;;42.05;14.23;;;27.10;99.90;;;;;;5100603;28;20034;-72
2021/06/23 00:12:41;;;;;;;40.45;13.88;;;27.00;99.90;;;;;;5098620;28;20028;-78
2021/06/23 00:15:09;;;;;;;35.90;13.25;;;27.00;99.90;;;;;;5101065;28;20091;-72
2021/06/23 00:17:35;;;;;;;35.65;13.07;;;27.00;99.90;;;;;;5101149;28;20103;-75
2021/06/23 00:20:01;;;;;;;37.92;12.75;;;27.10;99.90;;;;;;5100712;28;20031;-73
2021/06/23 00:22:27;;;;;;;37.75;13.30;;;27.00;99.90;;;;;;5100641;28;20107;-75
2021/06/23 00:24:53;;;;;;;42.10;12.70;;;27.10;99.90;;;;;;5100840;28;20048;-76
2021/06/23 00:27:19;;;;;;;35.08;11.90;;;27.10;99.90;;;;;;5101563;28;20048;-77
2021/06/23 00:29:45;;;;;;;39.17;12.35;;;27.20;99.90;;;;;;5099928;28;20508;-77
2021/06/23 00:32:14;;;;;;;31.45;12.25;;;27.00;99.90;;;;;;5101830;28;20024;-73
2021/06/23 00:34:40;;;;;;;35.20;12.30;;;27.00;99.90;;;;;;5102134;28;20017;-76
2021/06/23 00:37:06;;;;;;;35.33;11.82;;;26.90;99.90;;;;;;5101430;28;20106;-73
2021/06/23 00:39:32;;;;;;;33.30;11.93;;;26.90;99.90;;;;;;5098699;28;20108;-76
2021/06/23 00:41:58;;;;;;;34.88;12.07;;;26.90;99.90;;;;;;5099429;28;20112;-72
2021/06/23 00:44:24;;;;;;;36.42;12.18;;;26.90;99.90;;;;;;5100692;28;20116;-77
2021/06/23 00:46:52;;;;;;;34.65;11.93;;;26.80;99.90;;;;;;5081124;28;20059;-72
2021/06/23 00:49:18;;;;;;;34.03;12.35;;;26.80;99.90;;;;;;5079793;28;20462;-78
2021/06/23 00:51:45;;;;;;;38.17;12.63;;;26.80;99.90;;;;;;5080601;28;20009;-73
2021/06/23 00:54:13;;;;;;;33.95;12.40;;;26.80;99.90;;;;;;5079832;28;20023;-72
2021/06/23 00:56:40;;;;;;;37.40;12.73;;;26.80;99.90;;;;;;5080558;28;20016;-73
2021/06/23 00:59:09;;;;;;;33.28;11.80;;;26.80;99.90;;;;;;5079648;28;20008;-72
2021/06/23 01:01:38;;;;;;;35.03;13.48;;;26.80;99.90;;;;;;5080069;28;20001;-72
2021/06/23 01:04:04;;;;;;;38.05;13.25;;;26.70;99.90;;;;;;5080407;28;20024;-78
2021/06/23 01:06:31;;;;;;;32.20;12.63;;;26.70;99.90;;;;;;5080362;28;20029;-74
2021/06/23 01:08:58;;;;;;;33.60;11.98;;;26.60;99.90;;;;;;5076540;28;20066;-75
2021/06/23 01:11:27;;;;;;;36.53;12.73;;;26.60;99.90;;;;;;5080459;28;20111;-77
2021/06/23 01:13:59;;;;;;;39.60;13.52;;;26.50;99.90;;;;;;5078126;28;20027;-76
2021/06/23 01:16:28;;;;;;;41.15;12.90;;;26.60;99.90;;;;;;5080567;28;20036;-75
2021/06/23 01:18:56;;;;;;;34.67;13.05;;;26.50;99.90;;;;;;5082090;28;20525;-72
2021/06/23 01:21:22;;;;;;;35.35;12.43;;;26.40;99.90;;;;;;5082156;28;20377;-72
2021/06/23 01:23:47;;;;;;;31.98;12.63;;;26.40;99.90;;;;;;5083793;28;20064;-73
2021/06/23 01:26:14;;;;;;;31.75;13.18;;;26.40;99.90;;;;;;5082839;28;20074;-75
2021/06/23 01:28:39;;;;;;;34.08;13.20;;;26.30;99.90;;;;;;5083963;28;20020;-72
2021/06/23 01:31:06;;;;;;;31.73;13.68;;;26.40;99.90;;;;;;5077735;28;20107;-77
2021/06/23 01:33:33;;;;;;;40.30;15.15;;;26.30;99.90;;;;;;5084475;28;20490;-74
2021/06/23 01:35:59;;;;;;;41.95;14.93;;;26.10;99.90;;;;;;5082860;28;20016;-76
2021/06/23 01:38:25;;;;;;;38.17;14.38;;;26.00;99.90;;;;;;5083804;28;20028;-73
2021/06/23 01:40:52;;;;;;;36.88;13.43;;;26.00;99.90;;;;;;5084156;28;20029;-73
2021/06/23 01:43:19;;;;;;;39.63;13.38;;;25.90;99.90;;;;;;5082990;28;20032;-75
2021/06/23 01:45:46;;;;;;;37.05;13.82;;;25.70;99.90;;;;;;5083097;28;20029;-75
2021/06/23 01:48:17;;;;;;;39.08;13.18;;;25.70;99.90;;;;;;5082966;28;20039;-72
2021/06/23 01:51:04;;;;;;;37.92;12.27;;;25.50;99.90;;;;;;5078659;28;20020;-71
2021/06/23 01:53:33;;;;;;;33.83;11.98;;;25.40;99.90;;;;;;5080468;28;20106;-72
2021/06/23 01:55:59;;;;;;;33.45;12.13;;;25.40;99.90;;;;;;5077995;28;20029;-73
2021/06/23 01:58:26;;;;;;;37.50;12.02;;;25.50;99.90;;;;;;5081242;28;20029;-71
2021/06/23 02:01:16;;;;;;;40.35;12.48;;;25.40;99.90;;;;;;5077739;28;20528;-72
2021/06/23 02:03:54;;;;;;;35.17;12.35;;;25.30;99.90;;;;;;5081478;28;20037;-72
2021/06/23 02:06:38;;;;;;;41.30;12.80;;;25.20;99.90;;;;;;5083672;28;20024;-74
2021/06/23 02:09:46;;;;;;;39.47;12.02;;;25.10;99.90;;;;;;5083044;28;20020;-72
2021/06/23 02:12:24;;;;;;;32.80;11.88;;;25.30;99.90;;;;;;5083795;28;20017;-72
2021/06/23 02:14:53;;;;;;;33.22;11.30;;;25.30;99.90;;;;;;5081976;28;20371;-72
2021/06/23 02:17:23;;;;;;;35.20;10.90;;;25.40;99.90;;;;;;5083034;28;20411;-72
2021/06/23 02:19:50;;;;;;;31.83;11.02;;;25.50;99.90;;;;;;5082338;28;20028;-74
2021/06/23 02:22:27;;;;;;;34.47;10.82;;;25.50;99.90;;;;;;5083639;28;20099;-71
2021/06/23 02:25:14;;;;;;;41.03;11.95;;;25.60;99.90;;;;;;5078240;28;20036;-71
2021/06/23 02:27:42;;;;;;;34.05;10.85;;;25.60;99.90;;;;;;5081850;28;20032;-72
2021/06/23 02:30:11;;;;;;;38.33;10.68;;;25.60;99.90;;;;;;5081846;28;20151;-73
2021/06/23 02:32:40;;;;;;;34.58;10.63;;;25.60;99.90;;;;;;5084061;28;20095;-77
2021/06/23 02:35:07;;;;;;;35.63;11.85;;;25.40;99.90;;;;;;5084068;28;20028;-76
2021/06/23 02:37:35;;;;;;;36.67;11.25;;;25.20;99.90;;;;;;5082618;28;20025;-77
2021/06/23 02:40:01;;;;;;;33.75;11.35;;;25.20;99.90;;;;;;5081695;28;20036;-72
2021/06/23 02:42:28;;;;;;;38.67;11.65;;;25.10;99.90;;;;;;5081575;28;20071;-77
2021/06/23 02:44:54;;;;;;;34.38;11.05;;;25.20;99.90;;;;;;5078902;28;20111;-72
2021/06/23 02:47:21;;;;;;;35.70;11.68;;;25.10;99.90;;;;;;5081255;28;20019;-75
2021/06/23 02:49:47;;;;;;;37.03;11.35;;;25.20;99.90;;;;;;5082744;28;20017;-72
2021/06/23 02:52:14;;;;;;;34.17;11.43;;;25.30;99.90;;;;;;5079932;28;20021;-72
2021/06/23 02:54:41;;;;;;;40.70;15.82;;;25.30;99.90;;;;;;5080540;28;20024;-76
2021/06/23 02:57:08;;;;;;;47.00;18.98;;;25.30;99.90;;;;;;5081235;28;20024;-76
2021/06/23 02:59:35;;;;;;;51.33;21.10;;;25.40;99.90;;;;;;5078730;28;20027;-73
2021/06/23 03:02:01;;;;;;;47.85;16.40;;;25.40;99.90;;;;;;5082602;28;20020;-73
2021/06/23 03:04:28;;;;;;;34.22;11.25;;;25.30;99.90;;;;;;5082523;28;20079;-77
2021/06/23 03:06:53;;;;;;;36.00;10.85;;;25.30;99.90;;;;;;5082468;28;20452;-72
2021/06/23 03:09:19;;;;;;;37.47;10.70;;;25.50;99.90;;;;;;5081910;28;20105;-76
2021/06/23 03:11:45;;;;;;;36.72;11.07;;;25.40;99.90;;;;;;5082482;28;20020;-78
2021/06/23 03:14:11;;;;;;;37.80;10.13;;;25.50;99.90;;;;;;5080457;28;20021;-74
2021/06/23 03:16:37;;;;;;;32.60;10.75;;;25.50;99.90;;;;;;5081456;28;20024;-75
2021/06/23 03:19:04;;;;;;;32.13;10.75;;;25.50;99.90;;;;;;5080308;28;20052;-77
2021/06/23 03:21:30;;;;;;;42.13;10.77;;;25.50;99.90;;;;;;5082544;28;20470;-76
2021/06/23 03:23:57;;;;;;;31.85;10.20;;;25.40;99.90;;;;;;5080894;28;20111;-77
2021/06/23 03:26:24;;;;;;;31.23;10.40;;;25.60;99.90;;;;;;5081505;28;20125;-76
2021/06/23 03:28:51;;;;;;;38.08;10.65;;;25.60;99.90;;;;;;5078795;28;20044;-76
2021/06/23 03:31:17;;;;;;;42.40;11.55;;;25.60;99.90;;;;;;5082434;28;20027;-78
2021/06/23 03:33:44;;;;;;;36.78;11.05;;;25.70;99.90;;;;;;5082049;28;20052;-72
2021/06/23 03:36:10;;;;;;;35.97;10.10;;;25.70;99.90;;;;;;5081173;28;20020;-77
2021/06/23 03:38:36;;;;;;;41.38;10.10;;;25.70;99.90;;;;;;5080279;28;20032;-72
2021/06/23 03:41:03;;;;;;;40.13;10.15;;;25.80;99.90;;;;;;5081669;28;20056;-76
2021/06/23 03:43:29;;;;;;;39.78;10.60;;;25.70;99.90;;;;;;5079343;28;20040;-76
2021/06/23 03:45:55;;;;;;;47.58;15.60;;;25.70;99.90;;;;;;5080780;28;20073;-76
2021/06/23 03:48:21;;;;;;;60.33;20.17;;;25.70;99.90;;;;;;5081021;28;20028;-73
2021/06/23 03:50:48;;;;;;;54.38;15.43;;;25.90;99.90;;;;;;5080404;28;20029;-72
2021/06/23 03:53:14;;;;;;;42.42;12.60;;;25.90;99.90;;;;;;5079343;28;20028;-72
2021/06/23 03:55:40;;;;;;;38.17;14.50;;;25.80;99.90;;;;;;5081210;28;20030;-78
2021/06/23 03:58:07;;;;;;;42.17;15.50;;;25.90;99.90;;;;;;5081492;28;20053;-72
2021/06/23 04:00:33;;;;;;;37.30;13.57;;;26.00;99.90;;;;;;5080096;28;20017;-72
2021/06/23 04:02:59;;;;;;;48.20;15.45;;;26.00;99.90;;;;;;5081341;28;20104;-75
2021/06/23 04:05:25;;;;;;;55.90;19.48;;;26.00;99.90;;;;;;5079677;28;20085;-78
2021/06/23 04:07:52;;;;;;;50.22;17.55;;;26.00;99.90;;;;;;5079884;28;20055;-75
2021/06/23 04:10:17;;;;;;;41.05;13.82;;;26.00;99.90;;;;;;5080142;28;20024;-74
2021/06/23 04:12:44;;;;;;;39.40;11.32;;;26.00;99.90;;;;;;5077959;28;20031;-73
2021/06/23 04:15:13;;;;;;;39.83;10.50;;;26.00;99.90;;;;;;5081657;28;20017;-75
2021/06/23 04:17:39;;;;;;;32.35;10.13;;;26.00;99.90;;;;;;5079722;28;20024;-76
2021/06/23 04:20:07;;;;;;;36.78;9.82;;;26.10;99.90;;;;;;5079830;28;20417;-78
2021/06/23 04:22:33;;;;;;;30.52;9.70;;;26.10;99.90;;;;;;5081106;28;20023;-78
2021/06/23 04:25:00;;;;;;;39.70;10.40;;;26.20;99.90;;;;;;5079662;28;20111;-77
2021/06/23 04:27:26;;;;;;;39.45;11.95;;;26.20;99.90;;;;;;5081288;28;20107;-73
2021/06/23 04:29:52;;;;;;;40.13;13.45;;;26.20;99.90;;;;;;5078551;28;20032;-73
2021/06/23 04:32:18;;;;;;;41.08;14.90;;;26.20;99.90;;;;;;5078895;28;20356;-73
2021/06/23 04:34:44;;;;;;;45.22;13.80;;;26.10;99.90;;;;;;5081795;28;20000;-75
2021/06/23 04:37:10;;;;;;;37.67;14.23;;;26.20;99.90;;;;;;5080139;28;20023;-72
2021/06/23 04:39:36;;;;;;;41.83;14.48;;;26.30;99.90;;;;;;5080564;28;20029;-78
2021/06/23 04:42:02;;;;;;;38.80;13.13;;;26.20;99.90;;;;;;5079309;28;20424;-72
2021/06/23 04:44:28;;;;;;;43.10;13.30;;;26.30;99.90;;;;;;5080787;28;20067;-76
2021/06/23 04:46:55;;;;;;;36.90;12.70;;;26.20;99.90;;;;;;5075474;28;20497;-76
2021/06/23 04:49:21;;;;;;;31.90;11.10;;;26.40;99.90;;;;;;5080613;28;20055;-75
2021/06/23 04:51:47;;;;;;;36.97;11.05;;;26.40;99.90;;;;;;5080511;28;20055;-72
2021/06/23 04:54:13;;;;;;;32.25;10.60;;;26.50;99.90;;;;;;5079642;28;20017;-72
2021/06/23 04:56:39;;;;;;;38.88;10.50;;;26.50;99.90;;;;;;5079906;28;20379;-73
2021/06/23 04:59:05;;;;;;;33.20;10.50;;;26.50;99.90;;;;;;5079363;28;20034;-73
2021/06/23 05:01:31;;;;;;;35.25;9.90;;;26.60;99.90;;;;;;5080626;28;20032;-74
2021/06/23 05:03:56;;;;;;;33.78;9.73;;;26.60;99.90;;;;;;5077496;28;20052;-74
2021/06/23 05:06:22;;;;;;;36.75;10.40;;;26.60;99.90;;;;;;5079165;28;20020;-73
2021/06/23 05:08:48;;;;;;;30.10;9.15;;;26.70;99.90;;;;;;5077157;28;20025;-73
2021/06/23 05:11:14;;;;;;;36.58;9.27;;;26.90;99.90;;;;;;5074593;28;20031;-72
2021/06/23 05:13:40;;;;;;;35.10;8.52;;;26.80;99.90;;;;;;5075928;28;20021;-71
2021/06/23 05:16:06;;;;;;;30.70;9.00;;;26.90;99.90;;;;;;5077116;28;20032;-77
2021/06/23 05:18:34;;;;;;;28.88;8.63;;;27.00;99.90;;;;;;5080435;28;20020;-71
2021/06/23 05:21:01;;;;;;;29.02;8.60;;;27.10;99.90;;;;;;5077881;28;20528;-72
2021/06/23 05:23:27;;;;;;;26.50;7.90;;;27.20;99.90;;;;;;5062041;28;20069;-72
2021/06/23 05:25:53;;;;;;;31.00;9.02;;;27.30;99.90;;;;;;5040123;28;20018;-74
2021/06/23 05:28:19;;;;;;;28.65;8.77;;;27.40;99.90;;;;;;5038439;28;20018;-71
2021/06/23 05:30:46;;;;;;;31.75;9.13;;;27.40;99.90;;;;;;5042458;28;20117;-71
2021/06/23 05:33:12;;;;;;;30.70;8.80;;;27.50;99.90;;;;;;5034577;28;20033;-75
2021/06/23 05:35:38;;;;;;;35.67;8.65;;;27.50;99.90;;;;;;5034801;28;20024;-81
2021/06/23 05:38:04;;;;;;;28.33;8.20;;;27.50;99.90;;;;;;5032476;28;20507;-71
2021/06/23 05:40:30;;;;;;;31.33;9.25;;;27.70;99.90;;;;;;5035361;28;20375;-72
2021/06/23 05:42:56;;;;;;;31.50;8.52;;;27.70;99.90;;;;;;5033186;28;20381;-72
2021/06/23 05:45:22;;;;;;;28.70;8.23;;;27.80;99.90;;;;;;5031639;28;20083;-71
2021/06/23 05:47:48;;;;;;;30.70;7.70;;;27.90;99.90;;;;;;5035169;28;20017;-72
2021/06/23 05:50:14;;;;;;;35.00;7.90;;;28.00;99.90;;;;;;5033604;28;20028;-72
2021/06/23 05:52:40;;;;;;;34.42;8.45;;;28.00;99.90;;;;;;5038362;28;20345;-72
2021/06/23 05:55:06;;;;;;;30.88;7.70;;;28.20;99.90;;;;;;5035744;28;20091;-71
2021/06/23 05:57:32;;;;;;;29.33;7.55;;;28.30;99.90;;;;;;5031033;28;20422;-72
2021/06/23 05:59:58;;;;;;;32.45;8.20;;;28.40;99.90;;;;;;5030875;28;20022;-71
2021/06/23 06:02:24;;;;;;;30.27;8.18;;;28.50;99.90;;;;;;5030851;28;20112;-71
2021/06/23 06:04:49;;;;;;;27.73;7.60;;;28.60;99.90;;;;;;5033120;28;20524;-72
2021/06/23 06:07:15;;;;;;;33.67;7.75;;;28.70;99.90;;;;;;5034503;28;20064;-71
2021/06/23 06:09:41;;;;;;;30.35;8.40;;;28.70;99.80;;;;;;5034856;28;20100;-72
2021/06/23 06:12:08;;;;;;;29.75;8.00;;;28.90;99.30;;;;;;5038542;28;20022;-72
2021/06/23 06:14:34;;;;;;;31.92;7.70;;;28.90;99.90;;;;;;5036224;28;20021;-71
2021/06/23 06:17:00;;;;;;;29.02;7.45;;;28.90;99.70;;;;;;5041307;28;20036;-77
2021/06/23 06:19:26;;;;;;;24.88;7.57;;;28.90;99.00;;;;;;5044940;28;20001;-72
2021/06/23 06:21:54;;;;;;;28.02;7.70;;;29.10;99.20;;;;;;5044251;28;20033;-72
2021/06/23 06:24:20;;;;;;;27.88;7.72;;;29.10;98.70;;;;;;5043942;28;20030;-79
2021/06/23 06:26:46;;;;;;;24.85;7.07;;;29.30;98.70;;;;;;5044273;28;20028;-78
2021/06/23 06:29:12;;;;;;;28.67;6.95;;;29.30;98.20;;;;;;5044081;28;20017;-73
2021/06/23 06:31:38;;;;;;;27.83;7.05;;;29.50;98.70;;;;;;5043515;28;20026;-75
2021/06/23 06:34:04;;;;;;;25.63;6.45;;;29.60;97.80;;;;;;5043653;28;20073;-79
2021/06/23 06:36:30;;;;;;;24.73;7.57;;;29.70;97.50;;;;;;5043640;28;20474;-72
2021/06/23 06:38:56;;;;;;;31.67;7.07;;;29.80;97.70;;;;;;5042952;28;20028;-73
2021/06/23 06:41:23;;;;;;;31.63;7.25;;;29.90;96.50;;;;;;5043138;28;20026;-76
2021/06/23 06:43:48;;;;;;;31.88;6.82;;;30.00;96.70;;;;;;5042295;28;20396;-74
2021/06/23 06:46:15;;;;;;;23.73;6.45;;;30.20;96.30;;;;;;5043694;28;20025;-78
2021/06/23 06:48:41;;;;;;;23.75;6.35;;;30.20;95.70;;;;;;5043943;28;20036;-81
2021/06/23 06:51:07;;;;;;;24.70;6.50;;;30.30;95.10;;;;;;5042293;28;20013;-79
2021/06/23 06:53:33;;;;;;;29.63;6.72;;;30.40;95.10;;;;;;5043060;28;20348;-76
2021/06/23 06:55:59;;;;;;;20.75;6.22;;;30.40;94.50;;;;;;5043796;28;20108;-81
2021/06/23 06:58:31;;;;;;;24.27;6.35;;;;;;;;;;5041362;28;20048;-84
2021/06/23 07:00:57;;;;;;;26.30;6.28;;;30.80;95.00;;;;;;5043336;28;20049;-71
2021/06/23 07:03:23;;;;;;;26.15;6.65;;;30.90;94.80;;;;;;5042712;28;20025;-72
2021/06/23 07:05:49;;;;;;;24.48;6.38;;;31.00;94.10;;;;;;5043388;28;20017;-72
2021/06/23 07:08:15;;;;;;;26.60;6.28;;;31.00;93.80;;;;;;5040261;28;20069;-73
2021/06/23 07:10:41;;;;;;;27.27;7.45;;;31.10;93.70;;;;;;5044176;28;20017;-71
2021/06/23 07:13:07;;;;;;;22.55;6.22;;;31.10;95.00;;;;;;5043276;28;20025;-75
2021/06/23 07:15:33;;;;;;;25.60;6.22;;;31.10;92.60;;;;;;5042688;28;20033;-81
2021/06/23 07:17:59;;;;;;;22.65;6.22;;;31.30;93.10;;;;;;5043798;28;20056;-77
2021/06/23 07:20:25;;;;;;;28.75;6.45;;;31.20;93.00;;;;;;5043041;28;20369;-73
2021/06/23 07:22:52;;;;;;;23.30;6.18;;;31.50;93.10;;;;;;5043317;28;20048;-74
2021/06/23 07:25:17;;;;;;;26.73;5.95;;;31.50;92.20;;;;;;5042171;28;20033;-72
2021/06/23 07:27:43;;;;;;;29.30;6.30;;;31.60;90.80;;;;;;5042849;28;20021;-72
2021/06/23 07:30:10;;;;;;;19.45;5.53;;;31.70;92.30;;;;;;5042307;28;20025;-76
2021/06/23 07:38:13;;;;;;;31.70;5.72;;;32.30;91.20;;;;;;5042793;28;20036;-80
2021/06/23 07:43:08;;;;;;;22.23;5.32;;;32.40;90.50;;;;;;5041010;28;20045;-76
2021/06/23 07:45:36;;;;;;;21.98;5.28;;;32.50;89.50;;;;;;5043060;28;20029;-76
2021/06/23 07:48:02;;;;;;;17.33;5.20;;;32.40;84.40;;;;;;5043339;28;20017;-72
2021/06/23 07:50:36;;;;;;;16.85;4.93;;;32.60;88.10;;;;;;5039859;28;20025;-75
2021/06/23 07:53:20;;;;;;;16.60;4.72;;;32.90;87.80;;;;;;5042575;28;20029;-76
2021/06/23 07:56:09;;;;;;;26.48;5.50;;;32.80;85.90;;;;;;5042335;28;20020;-73
2021/06/23 08:02:08;;;;;;;19.58;5.10;;;32.90;86.40;;;;;;5042469;28;20043;-72
2021/06/23 08:09:37;;;;;;;21.15;5.38;;;33.30;83.80;;;;;;5036042;28;20032;-72
2021/06/23 08:14:40;;;;;;;18.17;4.97;;;33.30;83.80;;;;;;5037316;28;20060;-71
2021/06/23 08:17:07;;;;;;;18.95;5.15;;;33.50;83.50;;;;;;5036402;28;20014;-75
2021/06/23 08:19:33;;;;;;;19.50;4.75;;;33.50;83.30;;;;;;5036131;28;20026;-75
2021/06/23 08:21:59;;;;;;;20.50;4.70;;;33.60;83.10;;;;;;5036695;28;20014;-70
2021/06/23 08:24:25;;;;;;;16.88;4.90;;;33.90;85.10;;;;;;5035937;28;20063;-72
2021/06/23 08:26:51;;;;;;;18.27;4.88;;;33.80;82.00;;;;;;5036809;28;20075;-72
2021/06/23 08:29:16;;;;;;;21.02;4.38;;;33.80;77.40;;;;;;5033696;28;20085;-71
2021/06/23 08:31:43;;;;;;;17.00;4.38;;;33.90;78.80;;;;;;5037970;28;20029;-71
2021/06/23 08:34:09;;;;;;;18.80;4.53;;;34.20;81.90;;;;;;5039504;28;20017;-72
2021/06/23 08:36:35;;;;;;;19.45;4.57;;;34.00;79.60;;;;;;5040359;28;20026;-75
2021/06/23 08:39:01;;;;;;;17.67;4.18;;;34.20;79.80;;;;;;5041336;28;20475;-76
2021/06/23 08:41:28;;;;;;;17.02;4.35;;;34.30;79.70;;;;;;5040664;28;20022;-73
2021/06/23 08:43:57;;;;;;;16.30;4.28;;;34.40;77.20;;;;;;5039353;28;20021;-76
2021/06/23 08:46:23;;;;;;;18.83;4.25;;;34.20;80.20;;;;;;5040010;28;20367;-73
2021/06/23 08:48:49;;;;;;;14.88;4.40;;;34.40;76.50;;;;;;5038956;28;20017;-73
2021/06/23 08:51:15;;;;;;;23.25;4.82;;;34.30;77.10;;;;;;5040900;28;20068;-72
2021/06/23 08:53:41;;;;;;;15.70;4.03;;;34.70;78.70;;;;;;5041938;28;20072;-73
2021/06/23 08:56:08;;;;;;;14.40;3.80;;;34.80;75.50;;;;;;5041234;28;20108;-76
2021/06/23 08:58:35;;;;;;;14.48;4.07;;;35.10;76.80;;;;;;5040827;28;20030;-73
2021/06/23 09:01:01;;;;;;;18.38;4.60;;;35.20;76.10;;;;;;5041570;28;20424;-73
2021/06/23 09:03:27;;;;;;;19.95;4.85;;;35.30;77.70;;;;;;5040432;28;20025;-75
2021/06/23 09:05:57;;;;;;;16.05;4.28;;;35.20;74.90;;;;;;5039669;28;20004;-72
2021/06/23 09:08:35;;;;;;;13.38;4.28;;;35.50;78.90;;;;;;5039807;28;20022;-71
2021/06/23 09:11:13;;;;;;;14.68;4.30;;;35.20;76.10;;;;;;5041254;28;20029;-75
2021/06/23 09:13:39;;;;;;;16.65;4.00;;;35.00;73.20;;;;;;5042415;28;20105;-71
2021/06/23 09:16:05;;;;;;;19.77;4.35;;;35.50;78.90;;;;;;5038848;28;20030;-75
2021/06/23 09:18:37;;;;;;;13.10;3.72;;;35.30;73.50;;;;;;5039674;28;20028;-73
2021/06/23 09:21:18;;;;;;;15.52;4.55;;;35.40;74.50;;;;;;5040753;28;20048;-72
2021/06/23 09:23:54;;;;;;;14.07;4.03;;;35.40;73.10;;;;;;5040529;28;20030;-76
2021/06/23 09:26:34;;;;;;;14.77;4.00;;;35.50;77.40;;;;;;5040623;28;20025;-73
2021/06/23 09:29:15;;;;;;;14.77;4.20;;;35.50;73.20;;;;;;5035551;28;20029;-73
2021/06/23 09:31:52;;;;;;;12.07;3.45;;;35.40;71.40;;;;;;5036372;28;20029;-73
2021/06/23 09:34:46;;;;;;;17.52;3.90;;;35.80;74.50;;;;;;5034570;28;20029;-73
2021/06/23 09:37:33;;;;;;;14.77;4.03;;;36.10;73.00;;;;;;5033055;28;20045;-73
2021/06/23 09:40:24;;;;;;;15.48;4.57;;;36.30;73.00;;;;;;5039500;28;20471;-76
2021/06/23 09:43:10;;;;;;;16.90;4.10;;;35.80;69.90;;;;;;5036213;28;20052;-73
2021/06/23 09:45:36;;;;;;;13.68;4.07;;;35.50;71.60;;;;;;5039122;28;20118;-75
2021/06/23 09:48:06;;;;;;;18.25;3.90;;;35.70;69.50;;;;;;5043444;28;20024;-74
2021/06/23 09:50:36;;;;;;;13.60;3.80;;;35.30;68.00;;;;;;5043121;28;20033;-74
2021/06/23 09:53:09;;;;;;;12.10;3.22;;;35.80;72.80;;;;;;5046163;28;20037;-75
2021/06/23 09:55:43;;;;;;;19.23;3.60;;;35.80;70.70;;;;;;5043434;28;20030;-75
2021/06/23 09:58:14;;;;;;;16.25;3.90;;;35.60;68.00;;;;;;5044879;28;20024;-78
2021/06/23 10:00:57;;;;;;;14.35;4.22;;;35.60;67.70;;;;;;5043197;28;20383;-74
2021/06/23 10:03:34;;;;;;;16.35;4.10;;;35.50;68.80;;;;;;5043620;28;20029;-78
2021/06/23 10:06:21;;;;;;;13.55;3.47;;;35.70;68.00;;;;;;5045017;28;20460;-76
2021/06/23 10:08:46;;;;;;;15.88;3.60;;;35.90;71.60;;;;;;5043697;28;20033;-76
2021/06/23 10:11:13;;;;;;;17.00;4.28;;;36.30;73.40;;;;;;5043624;28;20025;-76
2021/06/23 10:13:39;;;;;;;17.85;3.97;;;36.40;69.10;;;;;;5043685;28;20013;-76
2021/06/23 10:16:05;;;;;;;15.27;3.63;;;36.30;72.90;;;;;;5042292;28;20022;-78
2021/06/23 10:18:33;;;;;;;18.20;3.80;;;36.10;66.10;;;;;;5042158;28;20372;-78
2021/06/23 10:21:01;;;;;;;14.52;3.97;;;36.20;69.30;;;;;;5043991;28;20025;-79
2021/06/23 10:23:27;;;;;;;14.18;3.80;;;36.00;66.10;;;;;;5042097;28;20021;-77
2021/06/23 10:25:55;;;;;;;16.55;3.40;;;36.30;66.40;;;;;;5043988;28;20498;-78
2021/06/23 10:28:23;;;;;;;18.85;4.18;;;36.70;66.60;;;;;;5044288;28;20043;-77
2021/06/23 10:30:51;;;;;;;14.40;3.80;;;36.70;67.60;;;;;;5044040;28;20356;-79
2021/06/23 10:33:18;;;;;;;16.85;3.70;;;37.00;69.10;;;;;;5044047;28;20041;-75
2021/06/23 10:35:44;;;;;;;11.73;3.42;;;37.00;64.80;;;;;;5043207;28;20018;-79
2021/06/23 10:38:10;;;;;;;19.45;3.90;;;37.10;68.00;;;;;;5042504;28;20026;-77
2021/06/23 10:40:37;;;;;;;13.85;3.53;;;37.20;66.00;;;;;;5038920;28;20018;-74
2021/06/23 10:43:14;;;;;;;15.55;3.80;;;37.10;63.30;;;;;;5037886;28;20395;-78
2021/06/23 10:45:46;;;;;;;13.32;3.58;;;37.20;64.40;;;;;;5042747;28;20053;-80
2021/06/23 10:48:12;;;;;;;16.35;3.75;;;37.10;60.80;;;;;;5041354;28;20072;-76
2021/06/23 10:50:41;;;;;;;16.52;3.80;;;37.00;60.80;;;;;;5040440;28;20607;-78
2021/06/23 10:53:31;;;;;;;18.95;4.07;;;36.90;64.30;;;;;;5037652;28;20105;-77
2021/06/23 10:55:58;;;;;;;17.60;4.03;;;37.00;65.40;;;;;;5040697;28;20098;-74
2021/06/23 10:58:29;;;;;;;18.67;4.40;;;36.90;64.90;;;;;;5041438;28;20022;-74
2021/06/23 11:01:23;;;;;;;14.15;3.80;;;37.30;61.30;;;;;;5040889;28;20026;-75
2021/06/23 11:03:57;;;;;;;17.45;4.53;;;37.30;65.80;;;;;;5038322;28;20041;-76
2021/06/23 11:06:44;;;;;;;15.93;4.68;;;37.50;63.20;;;;;;5040554;28;20155;-76
2021/06/23 11:09:30;;;;;;;18.58;4.05;;;37.80;65.50;;;;;;5041263;28;20025;-75
2021/06/23 11:11:57;;;;;;;15.60;3.83;;;37.60;64.20;;;;;;5040166;28;20430;-74
2021/06/23 11:14:25;;;;;;;16.17;4.20;;;37.60;68.60;;;;;;5040094;28;20013;-76
2021/06/23 11:16:51;;;;;;;19.35;4.00;;;37.90;65.00;;;;;;5040097;28;20075;-75
2021/06/23 11:19:17;;;;;;;25.65;4.20;;;38.30;70.90;;;;;;5040681;28;20030;-74
2021/06/23 11:21:46;;;;;;;18.63;4.88;;;38.40;64.50;;;;;;5035487;28;20060;-74
2021/06/23 11:24:14;;;;;;;15.23;4.50;;;38.40;63.40;;;;;;5041034;28;20120;-72
2021/06/23 11:26:43;;;;;;;16.00;4.25;;;38.50;66.60;;;;;;5041012;28;20018;-74
2021/06/23 11:29:09;;;;;;;19.60;5.00;;;38.70;66.70;;;;;;5040396;28;20036;-74
2021/06/23 11:31:42;;;;;;;21.67;4.80;;;38.70;68.20;;;;;;5045658;28;20029;-73
2021/06/23 11:34:09;;;;;;;17.23;4.28;;;38.40;65.80;;;;;;5046980;28;20021;-75
2021/06/23 11:36:35;;;;;;;22.55;4.45;;;38.50;66.30;;;;;;5047480;28;20001;-73
2021/06/23 11:39:03;;;;;;;21.58;4.30;;;38.70;66.90;;;;;;5047777;28;20033;-73
2021/06/23 11:41:29;;;;;;;14.65;4.20;;;38.50;64.10;;;;;;5049137;28;20032;-73
2021/06/23 11:43:55;;;;;;;20.42;4.85;;;38.40;63.70;;;;;;5047463;28;20033;-75
2021/06/23 11:46:21;;;;;;;24.15;4.97;;;38.40;67.60;;;;;;5048553;28;20029;-76
2021/06/23 11:48:47;;;;;;;24.73;5.05;;;38.30;63.30;;;;;;5047167;28;20480;-74
2021/06/23 11:51:13;;;;;;;23.02;4.88;;;38.40;62.50;;;;;;5048442;28;20043;-77
2021/06/23 11:53:41;;;;;;;21.42;4.53;;;38.30;63.70;;;;;;5043215;28;20018;-74
2021/06/23 11:56:07;;;;;;;17.95;5.00;;;38.30;64.70;;;;;;5035692;28;20112;-74
2021/06/23 11:58:33;;;;;;;23.75;8.75;;;38.60;67.90;;;;;;5039031;28;20411;-75
2021/06/23 12:01:00;;;;;;;24.45;5.93;;;38.70;65.00;;;;;;5040517;28;20030;-74
2021/06/23 12:03:26;;;;;;;18.52;5.72;;;38.90;65.20;;;;;;5036659;28;20026;-74
2021/06/23 12:05:52;;;;;;;16.38;4.57;;;38.60;63.10;;;;;;5034842;28;20076;-75
2021/06/23 12:08:18;;;;;;;22.25;5.00;;;38.50;66.40;;;;;;5037490;28;20029;-76
2021/06/23 12:10:45;;;;;;;20.05;4.93;;;38.60;66.70;;;;;;5035551;28;20408;-74
2021/06/23 12:13:12;;;;;;;19.00;4.80;;;38.80;63.40;;;;;;5037170;28;20108;-76
2021/06/23 12:15:39;;;;;;;20.17;4.93;;;38.40;62.90;;;;;;5035797;28;20018;-75
2021/06/23 12:18:07;;;;;;;19.90;4.88;;;38.50;65.50;;;;;;5036254;28;20021;-79
2021/06/23 12:20:36;;;;;;;15.85;4.38;;;38.70;65.90;;;;;;5045537;28;20006;-77
2021/06/23 12:23:08;;;;;;;19.85;4.68;;;38.90;62.80;;;;;;5043300;28;20028;-74
2021/06/23 12:25:42;;;;;;;31.02;5.80;;;39.10;61.30;;;;;;5039354;28;20148;-76
2021/06/23 12:28:11;;;;;;;26.75;4.95;;;38.80;59.00;;;;;;5037389;28;20104;-73
2021/06/23 12:30:42;;;;;;;21.10;4.80;;;38.60;60.00;;;;;;5037599;28;20022;-73
2021/06/23 12:33:12;;;;;;;25.90;4.97;;;38.70;59.80;;;;;;5036732;28;20092;-73
2021/06/23 12:35:42;;;;;;;23.15;5.20;;;;;;;;;;5036025;28;20018;-74
2021/06/23 12:38:10;;;;;;;20.35;4.53;;;38.10;58.00;;;;;;5035173;28;20475;-74
2021/06/23 12:40:36;;;;;;;21.35;4.47;;;37.90;57.50;;;;;;5036547;28;20521;-73
2021/06/23 12:43:09;;;;;;;22.20;4.97;;;37.80;61.10;;;;;;5036989;28;20049;-73
2021/06/23 12:45:38;;;;;;;21.23;4.55;;;38.20;62.30;;;;;;5044622;28;20037;-76
2021/06/23 12:48:05;;;;;;;16.33;4.55;;;38.10;59.60;;;;;;5044145;28;20026;-75
2021/06/23 12:50:31;;;;;;;19.02;4.72;;;38.20;60.10;;;;;;5047680;28;20036;-74
2021/06/23 12:52:57;;;;;;;19.38;4.70;;;38.40;64.20;;;;;;5047700;28;20052;-77
2021/06/23 12:55:24;;;;;;;15.80;4.57;;;38.20;60.30;;;;;;5043431;28;20070;-73
2021/06/23 12:57:50;;;;;;;21.67;4.45;;;37.90;58.00;;;;;;5045814;28;20029;-74